Time;durP1;ratioP1;P1;durP2;ratioP2;P2;SDS_P1;SDS_P2;PMS_P1;PMS_P2;Temp;Humidity;BMP_temperature;BMP_pressure;BME280_temperature;BME280_humidity;BME280_pressure;Samples;Min_cycle;Max_cycle;Signal;HPM_P1;HPM_P2
2022/10/25 00:01:29;;;;;;;9.97;3.47;;;8.20;99.90;;;;;;4177997;28;20187;-69
2022/10/25 00:03:29;;;;;;;8.30;4.10;;;8.20;99.90;;;;;;4178470;28;20702;-68
2022/10/25 00:05:30;;;;;;;8.30;3.60;;;8.20;99.90;;;;;;4178483;28;20274;-70
2022/10/25 00:07:30;;;;;;;7.10;3.80;;;8.20;99.90;;;;;;4178565;28;20264;-70
2022/10/25 00:09:31;;;;;;;7.23;3.20;;;8.20;99.90;;;;;;4178638;28;20179;-70
2022/10/25 00:11:32;;;;;;;9.10;4.10;;;8.20;99.90;;;;;;4178015;28;20191;-70
2022/10/25 00:13:33;;;;;;;6.33;3.60;;;8.20;99.90;;;;;;4178581;28;20284;-70
2022/10/25 00:15:34;;;;;;;9.70;4.03;;;8.20;99.90;;;;;;4178276;28;20195;-70
2022/10/25 00:17:34;;;;;;;10.63;3.83;;;8.20;99.90;;;;;;4178579;28;20290;-70
2022/10/25 00:19:35;;;;;;;7.40;3.40;;;8.20;99.90;;;;;;4178492;28;20207;-70
2022/10/25 00:21:36;;;;;;;10.60;3.17;;;8.10;99.90;;;;;;4177790;28;20184;-70
2022/10/25 00:23:37;;;;;;;8.90;3.30;;;8.10;99.90;;;;;;4178555;28;20184;-70
2022/10/25 00:25:37;;;;;;;5.77;3.50;;;8.20;99.90;;;;;;4181778;28;20681;-70
2022/10/25 00:27:38;;;;;;;10.80;3.77;;;8.20;99.90;;;;;;4181809;28;20207;-70
2022/10/25 00:29:38;;;;;;;9.17;3.70;;;8.20;99.90;;;;;;4181844;28;20179;-70
2022/10/25 00:31:39;;;;;;;6.67;3.10;;;8.10;99.90;;;;;;4180929;28;20948;-70
2022/10/25 00:33:41;;;;;;;11.30;3.63;;;8.20;99.90;;;;;;4181709;28;20818;-70
2022/10/25 00:35:42;;;;;;;8.57;3.57;;;8.20;99.90;;;;;;4181573;28;20183;-70
2022/10/25 00:37:42;;;;;;;6.30;3.03;;;8.20;99.90;;;;;;4181599;28;20198;-70
2022/10/25 00:39:45;;;;;;;5.33;3.37;;;8.20;99.90;;;;;;4181628;28;20175;-70
2022/10/25 00:41:45;;;;;;;8.20;4.17;;;8.20;99.90;;;;;;4180899;28;20184;-70
2022/10/25 00:43:49;;;;;;;6.00;3.20;;;8.20;99.90;;;;;;4181671;28;20580;-70
2022/10/25 00:45:49;;;;;;;10.70;3.53;;;8.20;99.90;;;;;;4181557;28;20189;-70
2022/10/25 00:48:02;;;;;;;10.13;3.83;;;8.20;99.90;;;;;;4181598;28;20195;-70
2022/10/25 00:50:15;;;;;;;7.97;2.70;;;8.20;99.90;;;;;;4181505;28;20552;-70
2022/10/25 00:52:16;;;;;;;6.70;3.33;;;8.20;99.90;;;;;;4187981;28;20189;-70
2022/10/25 00:54:22;;;;;;;8.60;3.30;;;8.10;99.90;;;;;;4197841;28;20465;-70
2022/10/25 00:56:26;;;;;;;11.20;3.93;;;8.10;99.90;;;;;;4197829;28;20560;-70
2022/10/25 00:58:30;;;;;;;6.37;3.80;;;8.10;99.90;;;;;;4197831;28;20204;-70
2022/10/25 01:00:30;;;;;;;6.57;3.77;;;8.20;99.90;;;;;;4197260;28;20191;-70
2022/10/25 01:02:31;;;;;;;5.77;3.57;;;8.20;99.90;;;;;;4197857;28;20211;-70
2022/10/25 01:04:32;;;;;;;8.27;4.00;;;8.20;99.90;;;;;;4197730;28;20601;-70
2022/10/25 01:06:37;;;;;;;7.27;3.53;;;8.20;99.90;;;;;;4197773;28;20191;-70
2022/10/25 01:08:41;;;;;;;12.03;4.10;;;8.20;99.90;;;;;;4197574;28;20175;-70
2022/10/25 01:10:42;;;;;;;9.03;4.40;;;8.20;99.90;;;;;;4197185;28;20187;-70
2022/10/25 01:12:43;;;;;;;13.53;4.93;;;8.20;99.90;;;;;;4190400;28;20191;-70
2022/10/25 01:14:47;;;;;;;12.20;4.37;;;8.20;99.90;;;;;;4180840;28;20266;-70
2022/10/25 01:17:15;;;;;;;11.83;4.53;;;8.10;99.90;;;;;;4181077;28;20579;-70
2022/10/25 01:19:41;;;;;;;12.30;4.03;;;8.10;99.90;;;;;;4181004;28;20270;-70
2022/10/25 01:21:59;;;;;;;7.30;3.77;;;8.10;99.90;;;;;;4180468;28;20206;-70
2022/10/25 01:24:17;;;;;;;8.80;4.40;;;8.10;99.90;;;;;;4181471;28;20190;-70
2022/10/25 01:26:44;;;;;;;11.03;4.80;;;8.10;99.90;;;;;;4181019;28;20183;-70
2022/10/25 01:28:44;;;;;;;8.93;3.73;;;8.20;99.90;;;;;;4180255;28;20197;-70
2022/10/25 01:30:54;;;;;;;5.77;3.60;;;8.10;99.90;;;;;;4180084;28;20409;-70
2022/10/25 01:33:12;;;;;;;9.93;3.83;;;8.10;99.90;;;;;;4180684;28;20191;-71
2022/10/25 01:35:51;;;;;;;5.50;3.30;;;8.10;99.90;;;;;;4180509;28;20216;-70
2022/10/25 01:38:01;;;;;;;9.10;4.13;;;8.00;99.90;;;;;;4178390;28;20211;-70
2022/10/25 01:40:08;;;;;;;14.17;4.20;;;8.00;99.90;;;;;;4179705;28;20567;-70
2022/10/25 01:42:22;;;;;;;8.00;4.00;;;8.10;99.90;;;;;;4179975;28;20294;-70
2022/10/25 01:44:48;;;;;;;10.60;4.30;;;8.20;99.90;;;;;;4180839;28;20196;-70
2022/10/25 01:46:56;;;;;;;7.03;3.73;;;8.20;99.90;;;;;;4180481;28;20213;-70
2022/10/25 01:49:11;;;;;;;8.53;4.00;;;8.20;99.90;;;;;;4180592;28;20190;-70
2022/10/25 01:51:15;;;;;;;7.90;3.60;;;8.20;99.90;;;;;;4180055;28;20180;-70
2022/10/25 01:53:16;;;;;;;10.47;4.03;;;8.20;99.90;;;;;;4180440;28;20180;-70
2022/10/25 01:55:19;;;;;;;8.50;3.50;;;8.20;99.90;;;;;;4180666;28;20210;-70
2022/10/25 01:57:37;;;;;;;9.63;4.03;;;8.30;99.90;;;;;;4180463;28;20196;-70
2022/10/25 01:59:53;;;;;;;9.07;4.40;;;8.20;99.90;;;;;;4180746;28;20188;-70
2022/10/25 02:02:35;;;;;;;9.37;4.37;;;8.20;99.90;;;;;;4179929;28;20977;-70
2022/10/25 02:04:57;;;;;;;9.00;4.57;;;8.20;99.90;;;;;;4179487;28;20466;-70
2022/10/25 02:07:05;;;;;;;6.43;3.47;;;8.20;99.90;;;;;;4180638;28;20306;-70
2022/10/25 02:09:28;;;;;;;9.77;4.13;;;8.20;99.90;;;;;;4180376;28;20188;-70
2022/10/25 02:11:31;;;;;;;7.13;3.70;;;8.20;99.90;;;;;;4179939;28;20210;-70
2022/10/25 02:13:47;;;;;;;15.53;4.70;;;8.20;99.90;;;;;;4180161;28;20442;-70
2022/10/25 02:16:08;;;;;;;7.40;3.50;;;8.20;99.90;;;;;;4180266;28;20180;-70
2022/10/25 02:18:14;;;;;;;5.83;4.00;;;8.10;99.90;;;;;;4180151;28;20196;-69
2022/10/25 02:20:20;;;;;;;11.67;5.10;;;8.20;99.90;;;;;;4179633;28;20556;-69
2022/10/25 02:22:24;;;;;;;7.00;4.43;;;8.20;99.90;;;;;;4180108;28;20216;-69
2022/10/25 02:24:27;;;;;;;8.70;4.70;;;8.20;99.90;;;;;;4180083;28;20276;-70
2022/10/25 02:26:28;;;;;;;7.37;3.97;;;8.20;99.90;;;;;;4180175;28;20260;-70
2022/10/25 02:28:29;;;;;;;7.97;4.53;;;8.00;99.90;;;;;;4180674;28;20196;-70
2022/10/25 02:30:32;;;;;;;12.73;4.53;;;8.00;99.90;;;;;;4179630;28;20345;-70
2022/10/25 02:32:33;;;;;;;10.33;3.90;;;8.00;99.90;;;;;;4180089;28;20188;-70
2022/10/25 02:34:34;;;;;;;7.87;4.03;;;8.00;99.90;;;;;;4180378;28;20554;-70
2022/10/25 02:36:35;;;;;;;9.50;4.20;;;8.00;99.90;;;;;;4179895;28;20210;-69
2022/10/25 02:38:36;;;;;;;13.80;4.00;;;8.00;99.90;;;;;;4179912;28;20199;-69
2022/10/25 02:40:36;;;;;;;11.40;3.97;;;8.10;99.90;;;;;;4179440;28;20192;-70
2022/10/25 02:42:37;;;;;;;8.00;3.70;;;8.10;99.90;;;;;;4179762;28;20560;-70
2022/10/25 02:44:38;;;;;;;6.47;3.00;;;8.10;99.90;;;;;;4179794;28;20602;-69
2022/10/25 02:46:41;;;;;;;14.90;4.40;;;8.10;99.90;;;;;;4179163;28;20573;-70
2022/10/25 02:48:42;;;;;;;9.07;4.03;;;8.10;99.90;;;;;;4190894;28;20192;-70
2022/10/25 02:50:43;;;;;;;5.67;3.17;;;8.10;99.90;;;;;;4195304;28;20422;-70
2022/10/25 02:52:43;;;;;;;6.07;3.93;;;8.10;99.90;;;;;;4196199;28;20191;-70
2022/10/25 02:54:44;;;;;;;7.90;3.73;;;8.10;99.90;;;;;;4195935;28;20190;-70
2022/10/25 02:56:45;;;;;;;10.23;4.20;;;8.10;99.90;;;;;;4195951;28;20611;-70
2022/10/25 02:58:46;;;;;;;6.17;3.23;;;8.00;99.90;;;;;;4195700;28;20176;-69
2022/10/25 03:00:47;;;;;;;13.43;6.50;;;8.00;99.90;;;;;;4195353;28;20191;-70
2022/10/25 03:02:48;;;;;;;10.30;3.73;;;7.90;99.90;;;;;;4195756;28;20643;-69
2022/10/25 03:04:48;;;;;;;15.03;5.47;;;7.70;99.90;;;;;;4194523;28;20202;-69
2022/10/25 03:06:49;;;;;;;7.77;4.10;;;7.60;99.90;;;;;;4195953;28;20240;-70
2022/10/25 03:08:49;;;;;;;8.43;3.07;;;7.50;99.90;;;;;;4195880;28;20179;-69
2022/10/25 03:10:50;;;;;;;10.57;4.00;;;7.50;99.90;;;;;;4195287;28;20702;-70
2022/10/25 03:12:51;;;;;;;6.07;3.53;;;7.50;99.90;;;;;;4193526;28;20238;-69
2022/10/25 03:14:52;;;;;;;4.17;3.00;;;7.30;99.90;;;;;;4180377;28;20199;-69
2022/10/25 03:16:52;;;;;;;5.27;3.10;;;7.20;99.90;;;;;;4178974;28;20230;-69
2022/10/25 03:18:56;;;;;;;5.57;2.57;;;7.10;99.90;;;;;;4179101;28;20192;-69
2022/10/25 03:20:59;;;;;;;8.10;2.53;;;7.10;99.90;;;;;;4178675;28;20670;-69
2022/10/25 03:22:59;;;;;;;4.13;3.07;;;6.90;99.90;;;;;;4179103;28;20486;-69
2022/10/25 03:25:00;;;;;;;6.17;3.50;;;6.80;99.90;;;;;;4178963;28;20476;-69
2022/10/25 03:27:01;;;;;;;4.40;2.87;;;6.90;99.90;;;;;;4179419;28;20203;-70
2022/10/25 03:29:01;;;;;;;4.90;2.90;;;6.90;99.90;;;;;;4179114;28;20258;-69
2022/10/25 03:31:02;;;;;;;4.47;2.97;;;6.80;99.90;;;;;;4178229;28;20184;-69
2022/10/25 03:33:02;;;;;;;4.40;3.00;;;6.80;99.90;;;;;;4178835;28;20791;-70
2022/10/25 03:35:03;;;;;;;6.10;3.17;;;6.80;99.90;;;;;;4178994;28;20663;-69
2022/10/25 03:37:04;;;;;;;7.47;3.50;;;6.70;99.90;;;;;;4177783;28;20635;-69
2022/10/25 03:39:04;;;;;;;16.70;4.60;;;6.70;99.90;;;;;;4179225;28;20184;-70
2022/10/25 03:41:05;;;;;;;10.87;3.23;;;6.70;99.90;;;;;;4178224;28;20194;-69
2022/10/25 03:43:06;;;;;;;14.20;4.70;;;6.70;99.90;;;;;;4178789;28;20238;-69
2022/10/25 03:45:07;;;;;;;19.33;8.67;;;6.70;99.90;;;;;;4178961;28;20177;-69
2022/10/25 03:47:07;;;;;;;15.03;6.30;;;6.70;99.90;;;;;;4178774;28;20641;-69
2022/10/25 03:49:08;;;;;;;6.30;2.77;;;6.70;99.90;;;;;;4179033;28;20422;-69
2022/10/25 03:51:09;;;;;;;6.53;4.17;;;6.60;99.90;;;;;;4178170;28;20196;-69
2022/10/25 03:53:10;;;;;;;13.33;5.23;;;6.60;99.90;;;;;;4178700;28;20639;-70
2022/10/25 03:55:10;;;;;;;11.50;4.87;;;6.50;99.90;;;;;;4194257;28;20195;-69
2022/10/25 03:57:11;;;;;;;17.10;5.03;;;6.40;99.90;;;;;;4178768;28;20450;-69
2022/10/25 03:59:11;;;;;;;41.57;7.10;;;6.40;99.90;;;;;;4177883;28;20181;-70
2022/10/25 04:01:12;;;;;;;61.07;9.80;;;6.40;99.90;;;;;;4185169;28;20237;-69
2022/10/25 04:03:12;;;;;;;30.00;6.17;;;6.30;99.90;;;;;;4195139;28;20257;-70
2022/10/25 04:05:13;;;;;;;46.20;7.67;;;6.30;99.90;;;;;;4195494;28;20701;-69
2022/10/25 04:07:14;;;;;;;18.53;5.50;;;6.30;99.90;;;;;;4195430;28;20673;-69
2022/10/25 04:09:14;;;;;;;21.33;5.67;;;6.30;99.90;;;;;;4195574;28;20233;-69
2022/10/25 04:11:15;;;;;;;31.50;6.73;;;6.30;99.90;;;;;;4194828;28;20190;-69
2022/10/25 04:13:15;;;;;;;80.23;7.70;;;6.20;99.90;;;;;;4195441;28;20837;-69
2022/10/25 04:15:16;;;;;;;39.87;7.40;;;6.20;99.90;;;;;;4195597;28;20650;-69
2022/10/25 04:17:16;;;;;;;58.57;9.27;;;6.10;99.90;;;;;;4195247;28;20203;-69
2022/10/25 04:19:17;;;;;;;83.63;12.87;;;6.10;99.90;;;;;;4195269;28;20266;-69
2022/10/25 04:21:19;;;;;;;13.60;5.73;;;6.00;99.90;;;;;;4194635;28;20230;-70
2022/10/25 04:23:19;;;;;;;14.40;5.20;;;6.00;99.90;;;;;;4195161;28;20219;-69
2022/10/25 04:25:20;;;;;;;23.90;6.70;;;5.90;99.90;;;;;;4195210;28;20579;-69
2022/10/25 04:27:21;;;;;;;17.33;7.23;;;5.90;99.90;;;;;;4195406;28;20203;-69
2022/10/25 04:29:21;;;;;;;18.00;7.93;;;5.80;99.90;;;;;;4195323;28;20179;-70
2022/10/25 04:31:23;;;;;;;10.47;6.77;;;5.80;99.90;;;;;;4194594;28;20215;-70
2022/10/25 04:33:23;;;;;;;12.07;6.10;;;5.80;99.90;;;;;;4195536;28;20266;-69
2022/10/25 04:35:24;;;;;;;7.50;3.87;;;5.80;99.90;;;;;;4195384;28;20436;-70
2022/10/25 04:37:24;;;;;;;8.63;4.40;;;5.80;99.90;;;;;;4193956;28;20229;-69
2022/10/25 04:39:25;;;;;;;9.20;5.20;;;5.70;99.90;;;;;;4194820;28;20647;-69
2022/10/25 04:41:25;;;;;;;7.33;5.07;;;5.70;99.90;;;;;;4194324;28;20270;-69
2022/10/25 04:43:27;;;;;;;9.27;5.60;;;5.70;99.90;;;;;;4194878;28;20692;-69
2022/10/25 04:45:28;;;;;;;7.60;4.30;;;5.70;99.90;;;;;;4194774;28;20191;-69
2022/10/25 04:47:31;;;;;;;66.63;17.83;;;5.60;99.90;;;;;;4195016;28;20456;-69
2022/10/25 04:49:31;;;;;;;47.73;13.70;;;5.60;99.90;;;;;;4194883;28;20504;-69
2022/10/25 04:51:33;;;;;;;36.10;12.50;;;5.60;99.90;;;;;;4194237;28;20432;-69
2022/10/25 04:53:33;;;;;;;41.90;12.70;;;5.70;99.90;;;;;;4194949;28;20559;-69
2022/10/25 04:55:34;;;;;;;27.70;11.10;;;5.70;99.90;;;;;;4194623;28;20430;-69
2022/10/25 04:57:35;;;;;;;31.17;8.87;;;5.80;99.90;;;;;;4194807;28;20281;-69
2022/10/25 04:59:35;;;;;;;38.27;8.93;;;5.80;99.90;;;;;;4188158;28;20258;-69
2022/10/25 05:01:36;;;;;;;19.77;8.20;;;5.80;99.90;;;;;;4185795;28;20241;-69
2022/10/25 05:03:37;;;;;;;24.77;9.83;;;5.70;99.90;;;;;;4194452;28;20207;-69
2022/10/25 05:05:37;;;;;;;9.67;5.77;;;5.70;99.90;;;;;;4194038;28;20188;-69
2022/10/25 05:07:38;;;;;;;11.90;6.80;;;5.70;99.90;;;;;;4180670;28;20219;-68
2022/10/25 05:09:38;;;;;;;11.53;6.53;;;5.60;99.90;;;;;;4194473;28;20184;-69
2022/10/25 05:11:39;;;;;;;9.87;5.97;;;5.60;99.90;;;;;;4196992;28;20230;-69
2022/10/25 05:13:40;;;;;;;10.33;6.57;;;5.60;99.90;;;;;;4197581;28;20544;-69
2022/10/25 05:15:41;;;;;;;11.10;5.60;;;5.60;99.90;;;;;;4197426;28;20188;-69
2022/10/25 05:17:41;;;;;;;12.07;6.83;;;5.60;99.90;;;;;;4197443;28;20552;-69
2022/10/25 05:19:42;;;;;;;11.10;5.93;;;5.60;99.90;;;;;;4197513;28;20265;-69
2022/10/25 05:21:42;;;;;;;7.37;5.30;;;5.60;99.90;;;;;;4196758;28;20296;-69
2022/10/25 05:23:44;;;;;;;6.47;4.53;;;5.60;99.90;;;;;;4197348;28;20237;-69
2022/10/25 05:25:44;;;;;;;6.97;4.87;;;5.50;99.90;;;;;;4197594;28;20207;-69
2022/10/25 05:27:45;;;;;;;11.70;6.30;;;5.50;99.90;;;;;;4195830;28;20472;-69
2022/10/25 05:29:46;;;;;;;20.00;9.03;;;5.40;99.90;;;;;;4197464;28;20541;-70
2022/10/25 05:31:46;;;;;;;30.10;11.20;;;5.40;99.90;;;;;;4196767;28;20222;-69
2022/10/25 05:33:49;;;;;;;27.00;10.37;;;5.30;99.90;;;;;;4197067;28;20429;-69
2022/10/25 05:35:50;;;;;;;30.77;11.03;;;5.30;99.90;;;;;;4197517;28;20222;-69
2022/10/25 05:37:50;;;;;;;33.33;11.40;;;5.20;99.90;;;;;;4197416;28;20454;-69
2022/10/25 05:39:51;;;;;;;22.20;10.43;;;5.20;99.90;;;;;;4197391;28;20180;-69
2022/10/25 05:41:52;;;;;;;26.43;11.83;;;5.20;99.90;;;;;;4196547;28;20188;-69
2022/10/25 05:43:52;;;;;;;30.77;12.63;;;5.20;99.90;;;;;;4197280;28;20210;-69
2022/10/25 05:46:05;;;;;;;33.53;11.20;;;5.10;99.90;;;;;;4197185;28;20199;-69
2022/10/25 05:48:06;;;;;;;25.67;10.43;;;5.10;99.90;;;;;;4197081;28;20253;-69
2022/10/25 05:50:06;;;;;;;13.33;7.80;;;5.10;99.90;;;;;;4197252;28;20425;-69
2022/10/25 05:52:08;;;;;;;32.87;9.90;;;5.00;99.90;;;;;;4196457;28;20237;-70
2022/10/25 05:54:10;;;;;;;18.80;9.47;;;5.00;99.90;;;;;;4196964;28;20567;-69
2022/10/25 05:56:11;;;;;;;19.27;7.23;;;5.00;99.90;;;;;;4196852;28;20441;-69
2022/10/25 05:58:12;;;;;;;16.30;6.57;;;5.00;99.90;;;;;;4197314;28;20479;-69
2022/10/25 06:00:12;;;;;;;11.97;6.90;;;5.10;99.90;;;;;;4196234;28;20930;-69
2022/10/25 06:02:13;;;;;;;10.30;6.37;;;5.00;99.90;;;;;;4196749;28;20711;-68
2022/10/25 06:04:14;;;;;;;12.53;7.03;;;5.00;99.90;;;;;;4196878;28;20596;-69
2022/10/25 06:06:16;;;;;;;10.40;5.60;;;5.10;99.90;;;;;;4190894;28;20192;-69
2022/10/25 06:08:16;;;;;;;32.93;12.73;;;5.00;99.90;;;;;;4188157;28;20430;-69
2022/10/25 06:10:17;;;;;;;21.80;8.93;;;5.00;99.90;;;;;;4181346;28;20975;-69
2022/10/25 06:12:17;;;;;;;54.80;13.23;;;5.10;99.90;;;;;;4179972;28;20197;-69
2022/10/25 06:14:18;;;;;;;31.07;10.47;;;5.10;99.90;;;;;;4180140;28;20184;-69
2022/10/25 06:16:19;;;;;;;26.70;10.37;;;5.10;99.90;;;;;;4186621;28;20274;-69
2022/10/25 06:18:20;;;;;;;37.20;12.70;;;5.10;99.90;;;;;;4188100;28;20188;-68
2022/10/25 06:20:21;;;;;;;23.23;9.93;;;5.10;99.90;;;;;;4187370;28;20426;-68
2022/10/25 06:22:21;;;;;;;27.70;11.47;;;5.10;99.90;;;;;;4187041;28;20590;-69
2022/10/25 06:24:22;;;;;;;22.07;11.23;;;5.10;99.90;;;;;;4187953;28;20172;-69
2022/10/25 06:26:25;;;;;;;23.67;9.73;;;5.10;99.90;;;;;;4187677;28;20208;-69
2022/10/25 06:28:27;;;;;;;24.20;10.07;;;5.20;99.90;;;;;;4184822;28;20203;-69
2022/10/25 06:30:27;;;;;;;33.40;10.53;;;5.10;99.90;;;;;;4184560;28;20431;-69
2022/10/25 06:32:28;;;;;;;131.53;20.20;;;5.10;99.90;;;;;;4179409;28;20492;-69
2022/10/25 06:34:28;;;;;;;27.20;9.57;;;5.10;99.90;;;;;;4180096;28;20184;-69
2022/10/25 06:36:30;;;;;;;36.07;11.67;;;5.20;99.90;;;;;;4180006;28;20675;-69
2022/10/25 06:38:31;;;;;;;44.07;12.87;;;5.20;99.90;;;;;;4179963;28;20192;-69
2022/10/25 06:40:31;;;;;;;32.03;12.30;;;5.20;99.90;;;;;;4179104;28;20431;-69
2022/10/25 06:42:32;;;;;;;34.37;10.90;;;5.30;99.90;;;;;;4179595;28;20216;-69
2022/10/25 06:44:32;;;;;;;25.37;12.03;;;5.40;99.90;;;;;;4179545;28;20212;-69
2022/10/25 06:46:36;;;;;;;16.93;9.47;;;5.30;99.90;;;;;;4179744;28;20192;-69
2022/10/25 06:48:36;;;;;;;15.60;9.17;;;5.30;99.90;;;;;;4179503;28;20256;-69
2022/10/25 06:50:37;;;;;;;11.73;7.90;;;5.30;99.90;;;;;;4178939;28;20922;-69
2022/10/25 06:52:37;;;;;;;12.17;8.03;;;5.30;99.90;;;;;;4179647;28;20192;-69
2022/10/25 06:54:38;;;;;;;17.80;8.33;;;5.30;99.90;;;;;;4179449;28;20674;-69
2022/10/25 06:56:38;;;;;;;13.63;8.30;;;5.30;99.90;;;;;;4179594;28;20196;-69
2022/10/25 06:58:39;;;;;;;15.77;8.93;;;5.40;99.90;;;;;;4179320;28;20179;-69
2022/10/25 07:00:40;;;;;;;16.07;8.60;;;5.40;99.90;;;;;;4178773;28;20211;-69
2022/10/25 07:02:40;;;;;;;16.40;9.27;;;5.40;99.90;;;;;;4179328;28;20230;-69
2022/10/25 07:04:41;;;;;;;20.07;9.67;;;5.40;99.90;;;;;;4193071;28;20192;-69
2022/10/25 07:06:41;;;;;;;17.23;8.53;;;5.50;99.90;;;;;;4195704;28;20584;-69
2022/10/25 07:08:44;;;;;;;13.27;7.30;;;5.60;99.90;;;;;;4195852;28;20187;-70
2022/10/25 07:10:52;;;;;;;13.97;8.17;;;5.60;99.90;;;;;;4195066;28;20179;-68
2022/10/25 07:12:53;;;;;;;11.57;7.73;;;5.70;99.90;;;;;;4195902;28;20925;-69
2022/10/25 07:14:53;;;;;;;10.57;7.33;;;5.70;99.90;;;;;;4195546;28;20501;-69
2022/10/25 07:16:54;;;;;;;13.67;8.10;;;5.70;99.90;;;;;;4194974;28;20202;-69
2022/10/25 07:18:59;;;;;;;10.97;6.77;;;5.70;99.90;;;;;;4195625;28;20201;-69
2022/10/25 07:21:21;;;;;;;12.20;7.13;;;5.80;99.90;;;;;;4194918;28;20184;-69
2022/10/25 07:23:22;;;;;;;13.17;7.93;;;5.80;99.90;;;;;;4195654;28;20472;-69
2022/10/25 07:25:22;;;;;;;14.37;7.67;;;5.90;99.90;;;;;;4195813;28;20916;-69
2022/10/25 07:27:23;;;;;;;9.57;6.30;;;5.90;99.90;;;;;;4195739;28;20881;-70
2022/10/25 07:29:23;;;;;;;13.07;7.37;;;6.00;99.90;;;;;;4195500;28;20171;-70
2022/10/25 07:31:29;;;;;;;16.67;7.43;;;6.00;99.90;;;;;;4195238;28;20179;-70
2022/10/25 07:33:30;;;;;;;11.80;7.13;;;6.10;99.90;;;;;;4195560;28;20257;-70
2022/10/25 07:35:31;;;;;;;11.63;6.43;;;6.10;99.90;;;;;;4195457;28;20501;-69
2022/10/25 07:37:32;;;;;;;9.33;6.40;;;6.20;99.90;;;;;;4195210;28;20198;-70
2022/10/25 07:39:32;;;;;;;16.53;9.53;;;6.20;99.90;;;;;;4195303;28;20796;-69
2022/10/25 07:41:33;;;;;;;16.87;9.10;;;6.30;99.90;;;;;;4194740;28;20171;-69
2022/10/25 07:43:34;;;;;;;18.87;8.70;;;6.40;99.90;;;;;;4195287;28;20290;-69
2022/10/25 07:45:37;;;;;;;14.83;7.57;;;6.40;99.90;;;;;;4195415;28;20211;-70
2022/10/25 07:47:37;;;;;;;16.23;7.90;;;6.50;99.90;;;;;;4195241;28;20214;-69
2022/10/25 07:49:38;;;;;;;16.30;7.43;;;6.50;99.90;;;;;;4195119;28;20426;-69
2022/10/25 07:51:39;;;;;;;12.90;6.90;;;6.60;99.90;;;;;;4194737;28;20195;-69
2022/10/25 07:53:40;;;;;;;6.53;4.33;;;6.70;99.90;;;;;;4195417;28;20215;-69
2022/10/25 07:55:40;;;;;;;8.50;5.20;;;6.80;99.90;;;;;;4195252;28;20176;-69
2022/10/25 07:57:41;;;;;;;8.33;5.17;;;6.90;99.90;;;;;;4195140;28;20202;-69
2022/10/25 07:59:41;;;;;;;10.00;6.10;;;7.00;99.90;;;;;;4195085;28;20176;-69
2022/10/25 08:01:42;;;;;;;10.00;5.60;;;7.10;99.90;;;;;;4194663;28;20233;-69
2022/10/25 08:03:42;;;;;;;9.10;5.40;;;7.10;99.90;;;;;;4195319;28;20297;-69
2022/10/25 08:05:44;;;;;;;10.30;5.67;;;7.20;99.90;;;;;;4194982;28;20172;-69
2022/10/25 08:07:45;;;;;;;9.67;5.67;;;7.40;99.90;;;;;;4194970;28;20206;-70
2022/10/25 08:09:46;;;;;;;8.60;5.90;;;7.50;99.90;;;;;;4194915;28;20544;-69
2022/10/25 08:11:46;;;;;;;10.10;6.00;;;7.60;99.90;;;;;;4194487;28;20647;-70
2022/10/25 08:13:48;;;;;;;8.67;5.40;;;7.70;99.90;;;;;;4195003;28;20278;-70
2022/10/25 08:15:54;;;;;;;10.73;5.90;;;7.80;99.90;;;;;;4195224;28;20179;-69
2022/10/25 08:18:02;;;;;;;7.87;5.70;;;8.00;99.90;;;;;;4195257;28;20205;-69
2022/10/25 08:20:03;;;;;;;8.10;5.27;;;8.20;99.90;;;;;;4195088;28;20717;-69
2022/10/25 08:22:04;;;;;;;7.00;5.00;;;8.40;99.90;;;;;;4194319;28;20209;-69
2022/10/25 08:24:05;;;;;;;7.40;4.57;;;8.60;99.90;;;;;;4195088;28;20191;-69
2022/10/25 08:26:05;;;;;;;8.90;4.43;;;8.80;99.90;;;;;;4194889;28;20689;-69
2022/10/25 08:28:06;;;;;;;13.43;4.03;;;9.00;99.90;;;;;;4195256;28;20204;-69
2022/10/25 08:30:07;;;;;;;6.07;2.93;;;9.20;99.90;;;;;;4195166;28;20986;-69
2022/10/25 08:32:08;;;;;;;4.40;3.10;;;9.60;99.90;;;;;;4194417;28;20190;-69
2022/10/25 08:34:08;;;;;;;7.53;2.70;;;9.80;99.90;;;;;;4195114;28;20183;-70
2022/10/25 08:36:09;;;;;;;6.97;2.33;;;10.00;99.90;;;;;;4194999;28;20179;-69
2022/10/25 08:38:09;;;;;;;4.23;1.93;;;10.20;99.90;;;;;;4194956;28;20728;-70
2022/10/25 08:40:23;;;;;;;3.90;1.80;;;10.30;99.90;;;;;;4194636;28;20182;-69
2022/10/25 08:42:34;;;;;;;4.90;2.00;;;10.70;99.90;;;;;;4195013;28;20294;-69
2022/10/25 08:45:01;;;;;;;5.80;1.87;;;10.90;99.90;;;;;;4194892;28;20214;-69
2022/10/25 08:47:25;;;;;;;2.13;1.90;;;11.10;99.90;;;;;;4198423;28;20704;-69
2022/10/25 08:49:33;;;;;;;2.53;1.40;;;11.50;99.90;;;;;;4197894;28;20183;-69
2022/10/25 08:51:38;;;;;;;4.57;1.40;;;11.60;99.90;;;;;;4197252;28;20615;-69
2022/10/25 08:53:42;;;;;;;4.40;1.60;;;11.80;99.90;;;;;;4197827;28;20237;-69
2022/10/25 08:55:44;;;;;;;3.83;1.40;;;12.00;99.90;;;;;;4197835;28;20676;-69
2022/10/25 08:57:46;;;;;;;3.57;1.30;;;12.20;99.90;;;;;;4197993;28;20196;-69
2022/10/25 08:59:53;;;;;;;1.90;1.33;;;12.40;99.90;;;;;;4197936;28;20267;-69
2022/10/25 09:01:57;;;;;;;3.33;1.13;;;12.50;99.90;;;;;;4197256;28;20174;-69
2022/10/25 09:03:58;;;;;;;4.50;1.23;;;12.80;99.90;;;;;;4186903;28;20244;-69
2022/10/25 09:06:34;;;;;;;3.07;0.80;;;12.90;99.90;;;;;;4181263;28;21334;-70
2022/10/25 09:08:40;;;;;;;1.93;0.90;;;13.00;99.90;;;;;;4181526;28;20263;-70
2022/10/25 09:10:47;;;;;;;2.70;1.03;;;13.10;99.90;;;;;;4180513;28;20184;-70
2022/10/25 09:13:14;;;;;;;10.37;1.10;;;13.00;99.90;;;;;;4181150;28;20727;-69
2022/10/25 09:15:48;;;;;;;1.73;1.03;;;13.00;99.90;;;;;;4181153;28;20184;-70
2022/10/25 09:17:51;;;;;;;1.73;1.20;;;13.10;99.90;;;;;;4181172;28;20677;-69
2022/10/25 09:20:04;;;;;;;1.77;1.30;;;12.90;99.90;;;;;;4181321;28;20238;-70
2022/10/25 09:22:13;;;;;;;2.00;1.33;;;13.00;99.90;;;;;;4180481;28;20176;-69
2022/10/25 09:24:40;;;;;;;4.60;1.50;;;13.00;99.90;;;;;;4184497;28;20172;-70
2022/10/25 09:27:05;;;;;;;2.50;1.57;;;13.50;99.90;;;;;;4181299;28;20197;-70
2022/10/25 09:29:28;;;;;;;3.60;1.60;;;13.20;99.90;;;;;;4193017;28;20274;-70
2022/10/25 09:31:36;;;;;;;2.40;1.50;;;12.90;99.90;;;;;;4180510;28;20177;-69
2022/10/25 09:33:41;;;;;;;2.53;1.50;;;12.20;99.90;;;;;;4181357;28;20188;-70
2022/10/25 09:35:47;;;;;;;1.53;1.37;;;12.00;99.90;;;;;;4181089;28;20237;-69
2022/10/25 09:37:52;;;;;;;1.70;1.27;;;12.00;99.90;;;;;;4181140;28;20585;-69
2022/10/25 09:39:58;;;;;;;1.93;1.70;;;12.10;99.90;;;;;;4181259;28;20195;-69
2022/10/25 09:41:59;;;;;;;4.20;1.80;;;11.80;99.90;;;;;;4180656;28;20180;-70
2022/10/25 09:44:08;;;;;;;9.17;2.10;;;11.50;99.90;;;;;;4180921;28;20754;-69
2022/10/25 09:46:19;;;;;;;8.47;2.00;;;11.60;99.90;;;;;;4180917;28;20187;-70
2022/10/25 09:48:28;;;;;;;5.83;1.87;;;11.70;99.90;;;;;;4180873;28;20192;-70
2022/10/25 09:50:36;;;;;;;2.40;1.63;;;11.90;99.90;;;;;;4180496;28;20687;-69
2022/10/25 09:52:45;;;;;;;6.03;2.23;;;12.20;99.90;;;;;;4180736;28;20184;-69
2022/10/25 09:54:54;;;;;;;2.17;1.57;;;12.70;99.90;;;;;;4180850;28;20188;-70
2022/10/25 09:56:54;;;;;;;2.40;2.00;;;12.40;99.90;;;;;;4180722;28;20574;-69
2022/10/25 09:58:55;;;;;;;7.53;2.13;;;12.20;99.90;;;;;;4180655;28;20187;-70
2022/10/25 10:01:00;;;;;;;3.93;1.80;;;12.30;99.90;;;;;;4180211;28;20212;-70
2022/10/25 10:03:01;;;;;;;2.53;2.03;;;12.60;99.90;;;;;;4180730;28;20212;-70
2022/10/25 10:05:01;;;;;;;2.30;2.03;;;12.80;99.90;;;;;;4180618;28;20316;-70
2022/10/25 10:07:15;;;;;;;5.47;2.20;;;12.80;99.90;;;;;;4180917;28;20279;-70
2022/10/25 10:09:15;;;;;;;2.13;1.80;;;13.10;99.90;;;;;;4180735;28;20231;-70
2022/10/25 10:11:17;;;;;;;4.00;1.90;;;13.40;99.90;;;;;;4180022;28;20301;-70
2022/10/25 10:13:41;;;;;;;3.50;2.10;;;13.40;99.90;;;;;;4179298;28;20286;-70
2022/10/25 10:16:01;;;;;;;2.87;2.07;;;13.50;99.90;;;;;;4180244;28;20675;-70
2022/10/25 10:18:30;;;;;;;2.97;1.90;;;13.30;99.90;;;;;;4180362;28;20273;-70
2022/10/25 10:20:31;;;;;;;2.47;1.90;;;13.60;99.90;;;;;;4179662;28;20192;-69
2022/10/25 10:22:31;;;;;;;4.63;2.10;;;13.80;99.90;;;;;;4179933;28;20204;-69
2022/10/25 10:24:38;;;;;;;2.50;2.30;;;14.10;99.90;;;;;;4180154;28;20234;-69
2022/10/25 10:26:53;;;;;;;2.50;2.03;;;14.40;99.90;;;;;;4179766;28;20246;-70
2022/10/25 10:29:08;;;;;;;2.60;2.13;;;14.60;99.90;;;;;;4180005;28;20203;-69
2022/10/25 10:31:09;;;;;;;3.13;2.03;;;14.90;99.90;;;;;;4178929;28;20557;-69
2022/10/25 10:33:16;;;;;;;3.00;2.00;;;15.80;99.90;;;;;;4179886;28;20188;-70
2022/10/25 10:35:35;;;;;;;2.13;1.93;;;16.50;97.70;;;;;;4179883;28;20195;-69
2022/10/25 10:37:36;;;;;;;3.47;1.73;;;15.70;96.40;;;;;;4179818;28;20250;-69
2022/10/25 10:39:53;;;;;;;3.47;1.90;;;16.40;98.50;;;;;;4180165;28;20184;-70
2022/10/25 10:42:02;;;;;;;2.87;2.10;;;17.30;94.80;;;;;;4178969;28;20176;-70
2022/10/25 10:44:13;;;;;;;1.87;1.73;;;17.80;95.10;;;;;;4179909;28;20172;-69
2022/10/25 10:46:16;;;;;;;1.70;1.60;;;18.10;92.20;;;;;;4179878;28;20180;-70
2022/10/25 10:48:22;;;;;;;3.10;2.00;;;18.60;91.90;;;;;;4179713;28;20180;-70
2022/10/25 10:50:27;;;;;;;2.27;1.97;;;18.00;87.90;;;;;;4179014;28;20184;-70